San Valentino — IQXH — position and weather

sailwx.info

Track history (hours):
 
Tides and Currents Weather Stations Pressure Air Temp Water Temp Dewpoint Dewpoint Depression Visibility Wind Speed Wind Dir Waves Ship Positions

San Valentino

Last reported at 2017-Oct-25 08:51 UTC. Time now 2017-Nov-19 12:29 UTC.
Position N 40°38' E 014°23'.
Warning: this ship's position is 25 days out of date.

Length 32 m; draft 2 m.

Type: Ship. MMSI: 247065100.

Date/timePositionNaut miles runAvg speedWind from/ knotsBaromVisibWave heightAir tempDewpointWater temp
2017-Oct-25 08:51N 40°38' E 014°23'0 0.0
2017-Oct-25 08:31N 40°38' E 014°23'  
2017-Oct-19 15:28N 40°38' E 014°23'3 2.4
2017-Oct-19 14:22N 40°35' E 014°24'4 1.2
2017-Oct-19 11:16N 40°37' E 014°28'3 9.7
2017-Oct-19 11:00N 40°36' E 014°25'4 5.2
2017-Oct-19 10:13N 40°37' E 014°20'2 8.8
2017-Oct-19 10:00N 40°38' E 014°21'1 0.1
2017-Oct-18 15:28N 40°38' E 014°23'4 0.9
2017-Oct-18 11:04N 40°37' E 014°28'0 5.4
2017-Oct-18 11:00N 40°37' E 014°27'6 6.3
2017-Oct-18 10:02N 40°37' E 014°19'0 9.5
2017-Oct-18 09:59N 40°37' E 014°19'3 0.1
2017-Oct-17 15:26N 40°38' E 014°23'3 6.4
2017-Oct-17 15:00N 40°37' E 014°19'3 5.6
2017-Oct-17 14:27N 40°35' E 014°22'6 1.8
2017-Oct-17 11:17N 40°37' E 014°29'3 9.6
2017-Oct-17 11:00N 40°36' E 014°26'5 5.4
2017-Oct-17 10:07N 40°37' E 014°20'1 9.3
2017-Oct-17 10:00N 40°38' E 014°20'2 0.1
2017-Oct-16 15:24N 40°38' E 014°23'3 3.4
2017-Oct-16 14:26N 40°35' E 014°22'6 1.3
2017-Oct-16 10:14N 40°37' E 014°29'3 9.6
2017-Oct-16 09:57N 40°36' E 014°25'5 3.8
2017-Oct-16 08:33N 40°36' E 014°18'0 9.2
2017-Oct-16 08:30N 40°36' E 014°19'3 6.6
2017-Oct-16 08:00N 40°38' E 014°23'0 0.0
2017-Oct-15 15:30N 40°38' E 014°23'5 2.5
2017-Oct-15 13:28N 40°38' E 014°29'0 0.8
2017-Oct-15 12:55N 40°37' E 014°30'0 0.0
2017-Oct-15 12:27N 40°37' E 014°30'0 0.0
2017-Oct-15 12:00N 40°37' E 014°30'0 0.0
2017-Oct-15 11:30N 40°37' E 014°30'0 0.2
2017-Oct-15 10:59N 40°37' E 014°29'1 2.7
2017-Oct-15 10:30N 40°37' E 014°28'  
Track history (hours):
 
Tides and Currents Weather Stations Pressure Air Temp Water Temp Dewpoint Dewpoint Depression Visibility Wind Speed Wind Dir Waves Ship Positions

San Valentino

Last reported at 2017-Oct-25 08:51 UTC. Time now 2017-Nov-19 12:29 UTC.
Position N 40°38' E 014°23'.
Warning: this ship's position is 25 days out of date.

Length 32 m; draft 2 m.

Type: Ship. MMSI: 247065100.

Date/timePositionNaut miles runAvg speedWind from/ knotsBaromVisibWave heightAir tempDewpointWater temp
2017-Oct-25 08:51N 40°38' E 014°23'0 0.0
2017-Oct-25 08:31N 40°38' E 014°23'  
2017-Oct-19 15:28N 40°38' E 014°23'3 2.4
2017-Oct-19 14:22N 40°35' E 014°24'4 1.2
2017-Oct-19 11:16N 40°37' E 014°28'3 9.7
2017-Oct-19 11:00N 40°36' E 014°25'4 5.2
2017-Oct-19 10:13N 40°37' E 014°20'2 8.8
2017-Oct-19 10:00N 40°38' E 014°21'1 0.1
2017-Oct-18 15:28N 40°38' E 014°23'4 0.9
2017-Oct-18 11:04N 40°37' E 014°28'0 5.4
2017-Oct-18 11:00N 40°37' E 014°27'6 6.3
2017-Oct-18 10:02N 40°37' E 014°19'0 9.5
2017-Oct-18 09:59N 40°37' E 014°19'3 0.1
2017-Oct-17 15:26N 40°38' E 014°23'3 6.4
2017-Oct-17 15:00N 40°37' E 014°19'3 5.6
2017-Oct-17 14:27N 40°35' E 014°22'6 1.8
2017-Oct-17 11:17N 40°37' E 014°29'3 9.6
2017-Oct-17 11:00N 40°36' E 014°26'5 5.4
2017-Oct-17 10:07N 40°37' E 014°20'1 9.3
2017-Oct-17 10:00N 40°38' E 014°20'2 0.1
2017-Oct-16 15:24N 40°38' E 014°23'3 3.4
2017-Oct-16 14:26N 40°35' E 014°22'6 1.3
2017-Oct-16 10:14N 40°37' E 014°29'3 9.6
2017-Oct-16 09:57N 40°36' E 014°25'5 3.8
2017-Oct-16 08:33N 40°36' E 014°18'0 9.2
2017-Oct-16 08:30N 40°36' E 014°19'3 6.6
2017-Oct-16 08:00N 40°38' E 014°23'0 0.0
2017-Oct-15 15:30N 40°38' E 014°23'5 2.5
2017-Oct-15 13:28N 40°38' E 014°29'0 0.8
2017-Oct-15 12:55N 40°37' E 014°30'0 0.0
2017-Oct-15 12:27N 40°37' E 014°30'0 0.0
2017-Oct-15 12:00N 40°37' E 014°30'0 0.0
2017-Oct-15 11:30N 40°37' E 014°30'0 0.2
2017-Oct-15 10:59N 40°37' E 014°29'1 2.7
2017-Oct-15 10:30N 40°37' E 014°28'  

Dump ship's entire track history